sensor_id;sensor_type;location;lat;lon;timestamp;P1;durP1;ratioP1;P2;durP2;ratioP2
46282;SDS011;32017;43.700;11.820;2023-03-21T00:00:20;5.10;;;5.00;;
46282;SDS011;32017;43.700;11.820;2023-03-21T00:02:40;4.50;;;4.40;;
46282;SDS011;32017;43.700;11.820;2023-03-21T00:05:01;4.72;;;4.55;;
46282;SDS011;32017;43.700;11.820;2023-03-21T00:07:34;4.40;;;4.30;;
46282;SDS011;32017;43.700;11.820;2023-03-21T00:09:54;5.90;;;5.68;;
46282;SDS011;32017;43.700;11.820;2023-03-21T00:12:23;6.40;;;6.13;;
46282;SDS011;32017;43.700;11.820;2023-03-21T00:14:43;6.10;;;5.88;;
46282;SDS011;32017;43.700;11.820;2023-03-21T00:17:04;5.25;;;5.00;;
46282;SDS011;32017;43.700;11.820;2023-03-21T00:19:24;4.82;;;3.85;;
46282;SDS011;32017;43.700;11.820;2023-03-21T00:21:47;4.18;;;4.07;;
46282;SDS011;32017;43.700;11.820;2023-03-21T00:24:26;4.75;;;4.65;;
46282;SDS011;32017;43.700;11.820;2023-03-21T00:26:46;3.58;;;3.38;;
46282;SDS011;32017;43.700;11.820;2023-03-21T00:29:06;4.90;;;4.80;;
46282;SDS011;32017;43.700;11.820;2023-03-21T00:31:26;4.72;;;4.47;;
46282;SDS011;32017;43.700;11.820;2023-03-21T00:33:46;4.50;;;4.40;;
46282;SDS011;32017;43.700;11.820;2023-03-21T00:36:07;4.50;;;4.18;;
46282;SDS011;32017;43.700;11.820;2023-03-21T00:38:28;4.40;;;4.30;;
46282;SDS011;32017;43.700;11.820;2023-03-21T00:40:48;4.50;;;4.30;;
46282;SDS011;32017;43.700;11.820;2023-03-21T00:43:08;4.28;;;4.05;;
46282;SDS011;32017;43.700;11.820;2023-03-21T00:45:30;4.82;;;4.68;;
46282;SDS011;32017;43.700;11.820;2023-03-21T00:47:50;4.28;;;4.18;;
46282;SDS011;32017;43.700;11.820;2023-03-21T00:50:11;5.10;;;4.75;;
46282;SDS011;32017;43.700;11.820;2023-03-21T00:52:31;4.88;;;4.78;;
46282;SDS011;32017;43.700;11.820;2023-03-21T00:55:00;4.00;;;3.90;;
46282;SDS011;32017;43.700;11.820;2023-03-21T00:57:20;3.90;;;3.70;;
46282;SDS011;32017;43.700;11.820;2023-03-21T00:59:51;4.25;;;4.15;;
46282;SDS011;32017;43.700;11.820;2023-03-21T01:02:11;3.60;;;3.50;;
46282;SDS011;32017;43.700;11.820;2023-03-21T01:04:33;3.47;;;2.90;;
46282;SDS011;32017;43.700;11.820;2023-03-21T01:06:53;3.50;;;3.40;;
46282;SDS011;32017;43.700;11.820;2023-03-21T01:09:15;2.90;;;2.90;;
46282;SDS011;32017;43.700;11.820;2023-03-21T01:11:36;4.20;;;3.97;;
46282;SDS011;32017;43.700;11.820;2023-03-21T01:13:56;4.40;;;4.30;;
46282;SDS011;32017;43.700;11.820;2023-03-21T01:16:33;4.00;;;3.90;;
46282;SDS011;32017;43.700;11.820;2023-03-21T01:18:54;7.60;;;7.03;;
46282;SDS011;32017;43.700;11.820;2023-03-21T01:21:14;10.02;;;9.23;;
46282;SDS011;32017;43.700;11.820;2023-03-21T01:23:35;5.15;;;5.05;;
46282;SDS011;32017;43.700;11.820;2023-03-21T01:25:56;5.95;;;5.78;;
46282;SDS011;32017;43.700;11.820;2023-03-21T01:28:16;4.18;;;4.07;;
46282;SDS011;32017;43.700;11.820;2023-03-21T01:30:36;4.18;;;4.07;;
46282;SDS011;32017;43.700;11.820;2023-03-21T01:33:01;5.22;;;4.93;;
46282;SDS011;32017;43.700;11.820;2023-03-21T01:35:21;4.10;;;3.92;;
46282;SDS011;32017;43.700;11.820;2023-03-21T01:37:42;4.63;;;4.32;;
46282;SDS011;32017;43.700;11.820;2023-03-21T01:40:02;5.30;;;5.20;;
46282;SDS011;32017;43.700;11.820;2023-03-21T01:42:23;4.60;;;4.43;;
46282;SDS011;32017;43.700;11.820;2023-03-21T01:44:57;4.57;;;4.47;;
46282;SDS011;32017;43.700;11.820;2023-03-21T01:47:17;3.92;;;3.83;;
46282;SDS011;32017;43.700;11.820;2023-03-21T01:49:39;3.95;;;3.85;;
46282;SDS011;32017;43.700;11.820;2023-03-21T01:52:06;5.35;;;5.05;;
46282;SDS011;32017;43.700;11.820;2023-03-21T01:54:36;4.10;;;4.00;;
46282;SDS011;32017;43.700;11.820;2023-03-21T01:56:59;4.40;;;4.30;;
46282;SDS011;32017;43.700;11.820;2023-03-21T02:02:11;5.10;;;5.00;;
46282;SDS011;32017;43.700;11.820;2023-03-21T02:04:36;3.58;;;3.58;;
46282;SDS011;32017;43.700;11.820;2023-03-21T02:06:59;4.00;;;4.00;;
46282;SDS011;32017;43.700;11.820;2023-03-21T02:09:22;4.25;;;4.15;;
46282;SDS011;32017;43.700;11.820;2023-03-21T02:11:43;3.70;;;3.60;;
46282;SDS011;32017;43.700;11.820;2023-03-21T02:14:14;4.15;;;3.75;;
46282;SDS011;32017;43.700;11.820;2023-03-21T02:27:15;3.70;;;3.60;;
46282;SDS011;32017;43.700;11.820;2023-03-21T02:37:25;3.33;;;3.33;;
46282;SDS011;32017;43.700;11.820;2023-03-21T02:42:43;3.33;;;3.22;;
46282;SDS011;32017;43.700;11.820;2023-03-21T02:45:24;3.85;;;3.85;;
46282;SDS011;32017;43.700;11.820;2023-03-21T02:47:49;3.17;;;3.15;;
46282;SDS011;32017;43.700;11.820;2023-03-21T02:50:12;2.72;;;2.63;;
46282;SDS011;32017;43.700;11.820;2023-03-21T02:52:35;2.63;;;2.63;;
46282;SDS011;32017;43.700;11.820;2023-03-21T02:54:58;2.95;;;2.95;;
46282;SDS011;32017;43.700;11.820;2023-03-21T02:57:19;3.75;;;3.65;;
46282;SDS011;32017;43.700;11.820;2023-03-21T02:59:41;3.58;;;3.58;;
46282;SDS011;32017;43.700;11.820;2023-03-21T03:02:14;3.30;;;3.30;;
46282;SDS011;32017;43.700;11.820;2023-03-21T03:04:35;4.55;;;4.45;;
46282;SDS011;32017;43.700;11.820;2023-03-21T03:09:25;3.15;;;3.15;;
46282;SDS011;32017;43.700;11.820;2023-03-21T03:11:48;3.03;;;2.85;;
46282;SDS011;32017;43.700;11.820;2023-03-21T03:19:24;3.10;;;3.10;;
46282;SDS011;32017;43.700;11.820;2023-03-21T03:22:08;3.72;;;3.72;;
46282;SDS011;32017;43.700;11.820;2023-03-21T03:24:36;3.67;;;3.58;;
46282;SDS011;32017;43.700;11.820;2023-03-21T03:27:00;3.58;;;3.47;;
46282;SDS011;32017;43.700;11.820;2023-03-21T03:29:21;3.28;;;3.17;;
46282;SDS011;32017;43.700;11.820;2023-03-21T03:32:27;3.28;;;3.28;;
46282;SDS011;32017;43.700;11.820;2023-03-21T03:34:36;2.80;;;2.80;;
46282;SDS011;32017;43.700;11.820;2023-03-21T03:36:59;3.75;;;3.65;;
46282;SDS011;32017;43.700;11.820;2023-03-21T03:39:24;3.70;;;3.70;;
46282;SDS011;32017;43.700;11.820;2023-03-21T03:41:49;2.88;;;2.88;;
46282;SDS011;32017;43.700;11.820;2023-03-21T03:44:30;3.83;;;3.33;;
46282;SDS011;32017;43.700;11.820;2023-03-21T03:47:10;3.95;;;3.95;;
46282;SDS011;32017;43.700;11.820;2023-03-21T03:49:51;3.85;;;3.58;;
46282;SDS011;32017;43.700;11.820;2023-03-21T03:52:17;4.10;;;3.72;;
46282;SDS011;32017;43.700;11.820;2023-03-21T03:54:40;4.22;;;4.13;;
46282;SDS011;32017;43.700;11.820;2023-03-21T03:57:02;3.85;;;3.72;;
46282;SDS011;32017;43.700;11.820;2023-03-21T03:59:23;4.03;;;4.03;;
46282;SDS011;32017;43.700;11.820;2023-03-21T04:01:44;3.30;;;3.30;;
46282;SDS011;32017;43.700;11.820;2023-03-21T04:04:04;4.13;;;4.03;;
46282;SDS011;32017;43.700;11.820;2023-03-21T04:06:32;3.55;;;3.45;;
46282;SDS011;32017;43.700;11.820;2023-03-21T04:08:52;3.42;;;3.40;;
46282;SDS011;32017;43.700;11.820;2023-03-21T04:11:13;2.35;;;2.35;;
46282;SDS011;32017;43.700;11.820;2023-03-21T04:13:34;4.40;;;4.40;;
46282;SDS011;32017;43.700;11.820;2023-03-21T04:15:54;3.72;;;3.72;;
46282;SDS011;32017;43.700;11.820;2023-03-21T04:18:15;3.40;;;3.30;;
46282;SDS011;32017;43.700;11.820;2023-03-21T04:20:35;3.88;;;3.78;;
46282;SDS011;32017;43.700;11.820;2023-03-21T04:22:56;4.05;;;3.95;;
46282;SDS011;32017;43.700;11.820;2023-03-21T04:25:17;3.90;;;3.90;;
46282;SDS011;32017;43.700;11.820;2023-03-21T04:27:51;4.13;;;4.03;;
46282;SDS011;32017;43.700;11.820;2023-03-21T04:30:13;4.40;;;4.20;;
46282;SDS011;32017;43.700;11.820;2023-03-21T04:32:34;3.42;;;3.30;;
46282;SDS011;32017;43.700;11.820;2023-03-21T04:34:57;4.20;;;4.10;;
46282;SDS011;32017;43.700;11.820;2023-03-21T04:37:18;3.72;;;3.63;;
46282;SDS011;32017;43.700;11.820;2023-03-21T04:39:39;2.92;;;2.92;;
46282;SDS011;32017;43.700;11.820;2023-03-21T04:41:59;3.38;;;3.28;;
46282;SDS011;32017;43.700;11.820;2023-03-21T04:44:19;4.85;;;4.85;;
46282;SDS011;32017;43.700;11.820;2023-03-21T04:46:40;3.55;;;3.45;;
46282;SDS011;32017;43.700;11.820;2023-03-21T04:49:00;3.70;;;3.70;;
46282;SDS011;32017;43.700;11.820;2023-03-21T04:51:21;3.60;;;3.42;;
46282;SDS011;32017;43.700;11.820;2023-03-21T04:53:41;3.13;;;3.03;;
46282;SDS011;32017;43.700;11.820;2023-03-21T04:56:04;3.63;;;3.38;;
46282;SDS011;32017;43.700;11.820;2023-03-21T04:58:24;3.40;;;3.30;;
46282;SDS011;32017;43.700;11.820;2023-03-21T05:00:45;4.47;;;4.38;;
46282;SDS011;32017;43.700;11.820;2023-03-21T05:03:06;6.13;;;6.03;;
46282;SDS011;32017;43.700;11.820;2023-03-21T05:05:29;5.88;;;5.78;;
46282;SDS011;32017;43.700;11.820;2023-03-21T05:07:50;4.15;;;3.95;;
46282;SDS011;32017;43.700;11.820;2023-03-21T05:10:10;4.15;;;4.05;;
46282;SDS011;32017;43.700;11.820;2023-03-21T05:12:31;4.53;;;4.43;;
46282;SDS011;32017;43.700;11.820;2023-03-21T05:14:51;4.30;;;4.20;;
46282;SDS011;32017;43.700;11.820;2023-03-21T05:17:11;3.97;;;3.95;;
46282;SDS011;32017;43.700;11.820;2023-03-21T05:19:40;3.85;;;3.75;;
46282;SDS011;32017;43.700;11.820;2023-03-21T05:22:04;3.55;;;3.35;;
46282;SDS011;32017;43.700;11.820;2023-03-21T05:24:25;5.13;;;4.80;;
46282;SDS011;32017;43.700;11.820;2023-03-21T05:26:45;7.20;;;4.93;;
46282;SDS011;32017;43.700;11.820;2023-03-21T05:29:09;6.28;;;5.88;;
46282;SDS011;32017;43.700;11.820;2023-03-21T05:31:29;11.75;;;9.73;;
46282;SDS011;32017;43.700;11.820;2023-03-21T05:33:49;11.82;;;9.73;;
46282;SDS011;32017;43.700;11.820;2023-03-21T05:36:10;12.30;;;9.55;;
46282;SDS011;32017;43.700;11.820;2023-03-21T05:38:30;8.30;;;7.57;;
46282;SDS011;32017;43.700;11.820;2023-03-21T05:40:51;4.45;;;4.35;;
46282;SDS011;32017;43.700;11.820;2023-03-21T05:43:12;5.15;;;5.05;;
46282;SDS011;32017;43.700;11.820;2023-03-21T05:45:32;5.43;;;5.32;;
46282;SDS011;32017;43.700;11.820;2023-03-21T05:47:53;5.15;;;4.75;;
46282;SDS011;32017;43.700;11.820;2023-03-21T05:50:13;5.45;;;5.25;;
46282;SDS011;32017;43.700;11.820;2023-03-21T05:52:34;5.50;;;5.05;;
46282;SDS011;32017;43.700;11.820;2023-03-21T05:54:55;5.82;;;5.55;;
46282;SDS011;32017;43.700;11.820;2023-03-21T05:57:15;7.13;;;6.57;;
46282;SDS011;32017;43.700;11.820;2023-03-21T05:59:37;7.43;;;6.85;;
46282;SDS011;32017;43.700;11.820;2023-03-21T06:01:57;9.95;;;9.55;;
46282;SDS011;32017;43.700;11.820;2023-03-21T06:04:17;9.32;;;8.65;;
46282;SDS011;32017;43.700;11.820;2023-03-21T06:06:38;8.07;;;7.13;;
46282;SDS011;32017;43.700;11.820;2023-03-21T06:08:59;6.38;;;5.82;;
46282;SDS011;32017;43.700;11.820;2023-03-21T06:11:24;5.45;;;5.28;;
46282;SDS011;32017;43.700;11.820;2023-03-21T06:13:45;7.72;;;7.35;;
46282;SDS011;32017;43.700;11.820;2023-03-21T06:16:05;6.35;;;5.28;;
46282;SDS011;32017;43.700;11.820;2023-03-21T06:18:26;7.30;;;6.97;;
46282;SDS011;32017;43.700;11.820;2023-03-21T06:20:46;6.85;;;6.65;;
46282;SDS011;32017;43.700;11.820;2023-03-21T06:23:06;5.43;;;5.25;;
46282;SDS011;32017;43.700;11.820;2023-03-21T06:25:26;6.22;;;5.70;;
46282;SDS011;32017;43.700;11.820;2023-03-21T06:27:47;4.55;;;4.45;;
46282;SDS011;32017;43.700;11.820;2023-03-21T06:30:07;5.55;;;5.45;;
46282;SDS011;32017;43.700;11.820;2023-03-21T06:32:28;5.00;;;4.90;;
46282;SDS011;32017;43.700;11.820;2023-03-21T06:34:48;4.93;;;4.72;;
46282;SDS011;32017;43.700;11.820;2023-03-21T06:37:09;5.18;;;4.60;;
46282;SDS011;32017;43.700;11.820;2023-03-21T06:39:29;4.05;;;3.95;;
46282;SDS011;32017;43.700;11.820;2023-03-21T06:41:51;4.53;;;4.43;;
46282;SDS011;32017;43.700;11.820;2023-03-21T06:44:11;7.53;;;7.32;;
46282;SDS011;32017;43.700;11.820;2023-03-21T06:46:32;4.30;;;4.18;;
46282;SDS011;32017;43.700;11.820;2023-03-21T06:48:52;4.75;;;4.15;;
46282;SDS011;32017;43.700;11.820;2023-03-21T06:51:12;3.85;;;3.85;;
46282;SDS011;32017;43.700;11.820;2023-03-21T06:53:33;4.45;;;4.35;;
46282;SDS011;32017;43.700;11.820;2023-03-21T06:55:55;4.00;;;3.03;;
46282;SDS011;32017;43.700;11.820;2023-03-21T06:58:15;3.95;;;3.83;;
46282;SDS011;32017;43.700;11.820;2023-03-21T07:00:35;3.70;;;3.55;;
46282;SDS011;32017;43.700;11.820;2023-03-21T07:02:55;4.43;;;4.28;;
46282;SDS011;32017;43.700;11.820;2023-03-21T07:05:15;4.50;;;4.18;;
46282;SDS011;32017;43.700;11.820;2023-03-21T07:07:36;4.47;;;4.25;;
46282;SDS011;32017;43.700;11.820;2023-03-21T07:09:56;3.95;;;3.88;;
46282;SDS011;32017;43.700;11.820;2023-03-21T07:12:16;4.78;;;4.68;;
46282;SDS011;32017;43.700;11.820;2023-03-21T07:14:36;4.75;;;4.55;;
46282;SDS011;32017;43.700;11.820;2023-03-21T07:16:57;3.70;;;3.60;;
46282;SDS011;32017;43.700;11.820;2023-03-21T07:19:17;4.07;;;3.97;;
46282;SDS011;32017;43.700;11.820;2023-03-21T07:21:37;7.97;;;7.45;;
46282;SDS011;32017;43.700;11.820;2023-03-21T07:23:57;9.07;;;8.32;;
46282;SDS011;32017;43.700;11.820;2023-03-21T07:26:18;6.70;;;6.50;;
46282;SDS011;32017;43.700;11.820;2023-03-21T07:28:39;5.82;;;5.57;;
46282;SDS011;32017;43.700;11.820;2023-03-21T07:31:00;4.85;;;4.75;;
46282;SDS011;32017;43.700;11.820;2023-03-21T07:33:22;4.38;;;4.25;;
46282;SDS011;32017;43.700;11.820;2023-03-21T07:35:42;3.75;;;3.65;;
46282;SDS011;32017;43.700;11.820;2023-03-21T07:38:03;6.88;;;6.47;;
46282;SDS011;32017;43.700;11.820;2023-03-21T07:40:23;6.55;;;6.15;;
46282;SDS011;32017;43.700;11.820;2023-03-21T07:42:44;5.55;;;5.18;;
46282;SDS011;32017;43.700;11.820;2023-03-21T07:45:05;6.75;;;6.45;;
46282;SDS011;32017;43.700;11.820;2023-03-21T07:47:26;4.78;;;4.63;;
46282;SDS011;32017;43.700;11.820;2023-03-21T07:49:47;7.53;;;7.22;;
46282;SDS011;32017;43.700;11.820;2023-03-21T07:52:08;6.00;;;5.80;;
46282;SDS011;32017;43.700;11.820;2023-03-21T07:54:28;5.68;;;5.47;;
46282;SDS011;32017;43.700;11.820;2023-03-21T07:56:48;8.20;;;7.72;;
46282;SDS011;32017;43.700;11.820;2023-03-21T07:59:08;2.63;;;2.63;;
46282;SDS011;32017;43.700;11.820;2023-03-21T08:01:29;5.80;;;5.60;;
46282;SDS011;32017;43.700;11.820;2023-03-21T08:03:49;2.55;;;2.45;;
46282;SDS011;32017;43.700;11.820;2023-03-21T08:06:11;2.40;;;2.40;;
46282;SDS011;32017;43.700;11.820;2023-03-21T08:08:32;2.38;;;2.38;;
46282;SDS011;32017;43.700;11.820;2023-03-21T08:10:52;2.30;;;2.30;;
46282;SDS011;32017;43.700;11.820;2023-03-21T08:13:12;3.53;;;3.42;;
46282;SDS011;32017;43.700;11.820;2023-03-21T08:15:32;4.95;;;4.65;;
46282;SDS011;32017;43.700;11.820;2023-03-21T08:17:53;4.57;;;4.38;;
46282;SDS011;32017;43.700;11.820;2023-03-21T08:20:14;4.38;;;4.07;;
46282;SDS011;32017;43.700;11.820;2023-03-21T08:22:35;3.10;;;3.00;;
46282;SDS011;32017;43.700;11.820;2023-03-21T08:24:55;2.85;;;2.85;;
46282;SDS011;32017;43.700;11.820;2023-03-21T08:27:16;3.20;;;3.05;;
46282;SDS011;32017;43.700;11.820;2023-03-21T08:29:36;5.35;;;5.20;;
46282;SDS011;32017;43.700;11.820;2023-03-21T08:31:58;3.22;;;3.17;;
46282;SDS011;32017;43.700;11.820;2023-03-21T08:34:19;3.28;;;3.10;;
46282;SDS011;32017;43.700;11.820;2023-03-21T08:36:41;2.95;;;2.95;;
46282;SDS011;32017;43.700;11.820;2023-03-21T08:39:02;9.35;;;4.18;;
46282;SDS011;32017;43.700;11.820;2023-03-21T08:41:23;3.03;;;2.78;;
46282;SDS011;32017;43.700;11.820;2023-03-21T08:43:44;2.35;;;2.25;;
46282;SDS011;32017;43.700;11.820;2023-03-21T08:46:05;3.20;;;3.20;;
46282;SDS011;32017;43.700;11.820;2023-03-21T08:48:25;3.53;;;3.53;;
46282;SDS011;32017;43.700;11.820;2023-03-21T08:50:45;2.80;;;2.80;;
46282;SDS011;32017;43.700;11.820;2023-03-21T08:53:06;2.65;;;2.45;;
46282;SDS011;32017;43.700;11.820;2023-03-21T08:55:26;2.88;;;2.72;;
46282;SDS011;32017;43.700;11.820;2023-03-21T08:57:46;2.55;;;2.35;;
46282;SDS011;32017;43.700;11.820;2023-03-21T09:00:07;3.60;;;3.50;;
46282;SDS011;32017;43.700;11.820;2023-03-21T09:02:31;3.47;;;3.38;;
46282;SDS011;32017;43.700;11.820;2023-03-21T09:04:52;3.20;;;3.10;;
46282;SDS011;32017;43.700;11.820;2023-03-21T09:07:13;3.17;;;3.08;;
46282;SDS011;32017;43.700;11.820;2023-03-21T09:09:36;3.13;;;3.03;;
46282;SDS011;32017;43.700;11.820;2023-03-21T09:11:56;3.08;;;3.08;;
46282;SDS011;32017;43.700;11.820;2023-03-21T09:14:16;3.33;;;3.22;;
46282;SDS011;32017;43.700;11.820;2023-03-21T09:16:38;3.50;;;3.38;;
46282;SDS011;32017;43.700;11.820;2023-03-21T09:18:59;2.53;;;2.53;;
46282;SDS011;32017;43.700;11.820;2023-03-21T09:21:19;3.50;;;3.30;;
46282;SDS011;32017;43.700;11.820;2023-03-21T09:23:39;3.33;;;3.22;;
46282;SDS011;32017;43.700;11.820;2023-03-21T09:26:00;4.55;;;4.45;;
46282;SDS011;32017;43.700;11.820;2023-03-21T09:28:20;3.50;;;3.30;;
46282;SDS011;32017;43.700;11.820;2023-03-21T09:30:42;3.00;;;3.00;;
46282;SDS011;32017;43.700;11.820;2023-03-21T09:33:03;2.63;;;2.60;;
46282;SDS011;32017;43.700;11.820;2023-03-21T09:35:31;2.25;;;2.25;;
46282;SDS011;32017;43.700;11.820;2023-03-21T09:37:51;2.80;;;2.60;;
46282;SDS011;32017;43.700;11.820;2023-03-21T09:42:57;2.00;;;2.00;;
46282;SDS011;32017;43.700;11.820;2023-03-21T09:45:31;3.08;;;2.97;;
46282;SDS011;32017;43.700;11.820;2023-03-21T09:47:56;3.75;;;3.63;;
46282;SDS011;32017;43.700;11.820;2023-03-21T09:52:55;3.55;;;3.45;;
46282;SDS011;32017;43.700;11.820;2023-03-21T09:55:21;6.88;;;2.88;;
46282;SDS011;32017;43.700;11.820;2023-03-21T09:57:45;3.03;;;2.92;;
46282;SDS011;32017;43.700;11.820;2023-03-21T10:00:09;2.70;;;2.63;;
46282;SDS011;32017;43.700;11.820;2023-03-21T10:02:34;3.15;;;3.05;;
46282;SDS011;32017;43.700;11.820;2023-03-21T10:04:57;3.65;;;3.55;;
46282;SDS011;32017;43.700;11.820;2023-03-21T10:07:18;3.70;;;3.40;;
46282;SDS011;32017;43.700;11.820;2023-03-21T10:09:39;2.38;;;2.28;;
46282;SDS011;32017;43.700;11.820;2023-03-21T10:12:04;2.85;;;2.75;;
46282;SDS011;32017;43.700;11.820;2023-03-21T10:14:43;3.28;;;3.15;;
46282;SDS011;32017;43.700;11.820;2023-03-21T10:19:25;4.38;;;4.28;;
46282;SDS011;32017;43.700;11.820;2023-03-21T10:21:47;3.08;;;2.97;;
46282;SDS011;32017;43.700;11.820;2023-03-21T10:24:21;2.83;;;2.72;;
46282;SDS011;32017;43.700;11.820;2023-03-21T10:26:43;3.67;;;3.58;;
46282;SDS011;32017;43.700;11.820;2023-03-21T10:29:04;2.90;;;2.83;;
46282;SDS011;32017;43.700;11.820;2023-03-21T10:31:25;3.42;;;3.33;;
46282;SDS011;32017;43.700;11.820;2023-03-21T10:33:48;2.95;;;2.95;;
46282;SDS011;32017;43.700;11.820;2023-03-21T10:36:16;3.10;;;3.00;;
46282;SDS011;32017;43.700;11.820;2023-03-21T10:38:43;4.25;;;2.70;;
46282;SDS011;32017;43.700;11.820;2023-03-21T10:41:04;3.67;;;3.47;;
46282;SDS011;32017;43.700;11.820;2023-03-21T10:45:46;2.22;;;2.17;;
46282;SDS011;32017;43.700;11.820;2023-03-21T10:48:06;3.50;;;3.40;;
46282;SDS011;32017;43.700;11.820;2023-03-21T10:50:27;3.33;;;3.13;;
46282;SDS011;32017;43.700;11.820;2023-03-21T10:52:49;2.97;;;2.88;;
46282;SDS011;32017;43.700;11.820;2023-03-21T10:55:17;2.72;;;2.65;;
46282;SDS011;32017;43.700;11.820;2023-03-21T10:57:39;3.17;;;3.08;;
46282;SDS011;32017;43.700;11.820;2023-03-21T10:59:59;2.92;;;2.83;;
46282;SDS011;32017;43.700;11.820;2023-03-21T11:02:36;2.92;;;2.72;;
46282;SDS011;32017;43.700;11.820;2023-03-21T11:04:56;3.70;;;3.53;;
46282;SDS011;32017;43.700;11.820;2023-03-21T11:07:26;3.13;;;2.92;;
46282;SDS011;32017;43.700;11.820;2023-03-21T11:09:50;2.63;;;2.53;;
46282;SDS011;32017;43.700;11.820;2023-03-21T11:12:13;3.13;;;3.03;;
46282;SDS011;32017;43.700;11.820;2023-03-21T11:16:54;2.45;;;2.35;;
46282;SDS011;32017;43.700;11.820;2023-03-21T11:19:15;4.10;;;2.88;;
46282;SDS011;32017;43.700;11.820;2023-03-21T11:21:36;2.80;;;2.80;;
46282;SDS011;32017;43.700;11.820;2023-03-21T11:23:56;2.90;;;2.75;;
46282;SDS011;32017;43.700;11.820;2023-03-21T11:26:37;2.15;;;2.15;;
46282;SDS011;32017;43.700;11.820;2023-03-21T11:31:40;2.70;;;2.58;;
46282;SDS011;32017;43.700;11.820;2023-03-21T11:34:01;3.20;;;3.10;;
46282;SDS011;32017;43.700;11.820;2023-03-21T11:36:34;2.17;;;2.08;;
46282;SDS011;32017;43.700;11.820;2023-03-21T11:39:02;5.25;;;2.50;;
46282;SDS011;32017;43.700;11.820;2023-03-21T11:41:32;2.45;;;2.45;;
46282;SDS011;32017;43.700;11.820;2023-03-21T11:43:53;2.30;;;1.77;;
46282;SDS011;32017;43.700;11.820;2023-03-21T11:46:13;1.95;;;1.85;;
46282;SDS011;32017;43.700;11.820;2023-03-21T11:48:42;2.20;;;2.03;;
46282;SDS011;32017;43.700;11.820;2023-03-21T11:51:04;3.08;;;1.98;;
46282;SDS011;32017;43.700;11.820;2023-03-21T12:03:34;1.50;;;1.40;;
46282;SDS011;32017;43.700;11.820;2023-03-21T12:06:27;2.10;;;2.00;;
46282;SDS011;32017;43.700;11.820;2023-03-21T12:08:53;1.80;;;1.73;;
46282;SDS011;32017;43.700;11.820;2023-03-21T12:24:07;1.92;;;1.83;;
46282;SDS011;32017;43.700;11.820;2023-03-21T12:34:11;1.40;;;1.40;;
46282;SDS011;32017;43.700;11.820;2023-03-21T12:44:04;2.00;;;1.80;;
46282;SDS011;32017;43.700;11.820;2023-03-21T12:48:57;1.30;;;1.30;;
46282;SDS011;32017;43.700;11.820;2023-03-21T12:51:23;1.45;;;1.45;;
46282;SDS011;32017;43.700;11.820;2023-03-21T12:56:29;1.40;;;1.40;;
46282;SDS011;32017;43.700;11.820;2023-03-21T12:58:51;1.10;;;1.10;;
46282;SDS011;32017;43.700;11.820;2023-03-21T13:01:14;1.30;;;1.20;;
46282;SDS011;32017;43.700;11.820;2023-03-21T13:03:43;1.10;;;1.10;;
46282;SDS011;32017;43.700;11.820;2023-03-21T13:06:05;1.40;;;1.40;;
46282;SDS011;32017;43.700;11.820;2023-03-21T13:08:36;3.53;;;1.40;;
46282;SDS011;32017;43.700;11.820;2023-03-21T13:10:57;5.30;;;4.90;;
46282;SDS011;32017;43.700;11.820;2023-03-21T13:20:46;1.83;;;1.60;;
46282;SDS011;32017;43.700;11.820;2023-03-21T13:23:08;1.75;;;1.73;;
46282;SDS011;32017;43.700;11.820;2023-03-21T13:27:52;1.48;;;1.10;;
46282;SDS011;32017;43.700;11.820;2023-03-21T13:34:59;1.00;;;1.00;;
46282;SDS011;32017;43.700;11.820;2023-03-21T13:37:21;1.10;;;1.00;;
46282;SDS011;32017;43.700;11.820;2023-03-21T13:39:42;1.27;;;1.00;;
46282;SDS011;32017;43.700;11.820;2023-03-21T13:42:04;1.30;;;1.30;;
46282;SDS011;32017;43.700;11.820;2023-03-21T13:44:42;1.20;;;0.90;;
46282;SDS011;32017;43.700;11.820;2023-03-21T13:47:03;2.67;;;1.10;;
46282;SDS011;32017;43.700;11.820;2023-03-21T13:49:29;16.43;;;1.80;;
46282;SDS011;32017;43.700;11.820;2023-03-21T13:51:51;2.00;;;1.80;;
46282;SDS011;32017;43.700;11.820;2023-03-21T13:54:16;1.00;;;1.00;;
46282;SDS011;32017;43.700;11.820;2023-03-21T13:59:08;1.95;;;1.00;;
46282;SDS011;32017;43.700;11.820;2023-03-21T14:03:49;1.58;;;1.30;;
46282;SDS011;32017;43.700;11.820;2023-03-21T14:06:17;1.70;;;1.35;;
46282;SDS011;32017;43.700;11.820;2023-03-21T14:08:38;1.20;;;1.20;;
46282;SDS011;32017;43.700;11.820;2023-03-21T14:10:59;1.23;;;1.20;;
46282;SDS011;32017;43.700;11.820;2023-03-21T14:13:23;1.02;;;0.90;;
46282;SDS011;32017;43.700;11.820;2023-03-21T14:15:45;1.10;;;1.00;;
46282;SDS011;32017;43.700;11.820;2023-03-21T14:18:15;1.10;;;1.10;;
46282;SDS011;32017;43.700;11.820;2023-03-21T14:20:57;1.20;;;1.10;;
46282;SDS011;32017;43.700;11.820;2023-03-21T14:23:19;0.90;;;0.90;;
46282;SDS011;32017;43.700;11.820;2023-03-21T14:25:39;0.90;;;0.90;;
46282;SDS011;32017;43.700;11.820;2023-03-21T14:28:07;0.95;;;0.95;;
46282;SDS011;32017;43.700;11.820;2023-03-21T14:30:29;1.17;;;1.17;;
46282;SDS011;32017;43.700;11.820;2023-03-21T14:32:55;0.85;;;0.85;;
46282;SDS011;32017;43.700;11.820;2023-03-21T14:35:17;1.58;;;1.00;;
46282;SDS011;32017;43.700;11.820;2023-03-21T14:37:41;0.95;;;0.95;;
46282;SDS011;32017;43.700;11.820;2023-03-21T14:40:02;1.00;;;1.00;;
46282;SDS011;32017;43.700;11.820;2023-03-21T14:42:27;1.20;;;1.10;;
46282;SDS011;32017;43.700;11.820;2023-03-21T14:44:52;3.47;;;1.00;;
46282;SDS011;32017;43.700;11.820;2023-03-21T14:47:19;0.95;;;0.95;;
46282;SDS011;32017;43.700;11.820;2023-03-21T14:49:39;4.63;;;1.00;;
46282;SDS011;32017;43.700;11.820;2023-03-21T14:52:01;1.30;;;1.10;;
46282;SDS011;32017;43.700;11.820;2023-03-21T14:54:24;1.00;;;1.00;;
46282;SDS011;32017;43.700;11.820;2023-03-21T14:56:47;1.20;;;1.20;;
46282;SDS011;32017;43.700;11.820;2023-03-21T14:59:09;1.17;;;1.17;;
46282;SDS011;32017;43.700;11.820;2023-03-21T15:01:31;2.10;;;1.15;;
46282;SDS011;32017;43.700;11.820;2023-03-21T15:06:13;1.50;;;1.10;;
46282;SDS011;32017;43.700;11.820;2023-03-21T15:08:34;1.85;;;1.00;;
46282;SDS011;32017;43.700;11.820;2023-03-21T15:10:59;1.00;;;1.00;;
46282;SDS011;32017;43.700;11.820;2023-03-21T15:13:28;1.00;;;1.00;;
46282;SDS011;32017;43.700;11.820;2023-03-21T15:15:49;1.10;;;1.00;;
46282;SDS011;32017;43.700;11.820;2023-03-21T15:18:19;1.02;;;0.90;;
46282;SDS011;32017;43.700;11.820;2023-03-21T15:20:41;1.10;;;1.00;;
46282;SDS011;32017;43.700;11.820;2023-03-21T15:23:02;0.95;;;0.90;;
46282;SDS011;32017;43.700;11.820;2023-03-21T15:25:25;0.90;;;0.90;;
46282;SDS011;32017;43.700;11.820;2023-03-21T15:27:47;0.90;;;0.90;;
46282;SDS011;32017;43.700;11.820;2023-03-21T15:30:42;1.02;;;0.90;;
46282;SDS011;32017;43.700;11.820;2023-03-21T15:32:55;1.45;;;1.00;;
46282;SDS011;32017;43.700;11.820;2023-03-21T15:35:36;1.17;;;1.00;;
46282;SDS011;32017;43.700;11.820;2023-03-21T15:37:58;1.23;;;1.00;;
46282;SDS011;32017;43.700;11.820;2023-03-21T15:40:19;0.95;;;0.95;;
46282;SDS011;32017;43.700;11.820;2023-03-21T15:42:40;1.05;;;1.05;;
46282;SDS011;32017;43.700;11.820;2023-03-21T15:45:01;1.00;;;1.00;;
46282;SDS011;32017;43.700;11.820;2023-03-21T15:47:37;1.00;;;1.00;;
46282;SDS011;32017;43.700;11.820;2023-03-21T15:49:58;1.40;;;1.40;;
46282;SDS011;32017;43.700;11.820;2023-03-21T15:52:20;1.30;;;1.30;;
46282;SDS011;32017;43.700;11.820;2023-03-21T15:54:42;1.10;;;1.10;;
46282;SDS011;32017;43.700;11.820;2023-03-21T15:57:04;1.08;;;0.98;;
46282;SDS011;32017;43.700;11.820;2023-03-21T15:59:29;1.52;;;1.42;;